Time;durP1;ratioP1;P1;durP2;ratioP2;P2;SDS_P1;SDS_P2;PMS_P1;PMS_P2;Temp;Humidity;BMP_temperature;BMP_pressure;BME280_temperature;BME280_humidity;BME280_pressure;Samples;Min_cycle;Max_cycle;Signal;HPM_P1;HPM_P2
2022/10/15 00:00:16;;;;;;;;;;;28.70;71.20;;;;;;5050614;28;19916;-76
2022/10/15 00:02:43;;;;;;;;;;;28.90;72.30;;;;;;5046010;28;19921;-76
2022/10/15 00:05:09;;;;;;;;;;;29.00;71.50;;;;;;5045181;28;19921;-76
2022/10/15 00:07:36;;;;;;;;;;;29.00;71.40;;;;;;5049374;28;19919;-77
2022/10/15 00:10:03;;;;;;;;;;;29.10;70.10;;;;;;5046095;28;20405;-75
2022/10/15 00:12:29;;;;;;;;;;;28.70;71.10;;;;;;5051128;28;20361;-77
2022/10/15 00:14:56;;;;;;;;;;;28.90;69.90;;;;;;5048054;28;20250;-76
2022/10/15 00:17:22;;;;;;;;;;;29.00;72.30;;;;;;5048848;28;19945;-76
2022/10/15 00:19:49;;;;;;;;;;;29.10;71.60;;;;;;5052455;28;19916;-75
2022/10/15 00:22:16;;;;;;;;;;;28.90;72.80;;;;;;5049968;28;19917;-76
2022/10/15 00:24:43;;;;;;;;;;;28.20;69.90;;;;;;5050936;28;19916;-78
2022/10/15 00:27:10;;;;;;;;;;;27.30;70.60;;;;;;5051805;28;19921;-76
2022/10/15 00:29:36;;;;;;;;;;;27.20;71.40;;;;;;5046867;28;20423;-74
2022/10/15 00:32:03;;;;;;;;;;;27.40;70.90;;;;;;5051530;28;19972;-74
2022/10/15 00:34:30;;;;;;;;;;;27.80;73.20;;;;;;5042326;28;19913;-76
2022/10/15 00:36:56;;;;;;;;;;;28.50;72.60;;;;;;5047902;28;19966;-75
2022/10/15 00:39:23;;;;;;;;;;;28.60;69.10;;;;;;5048742;28;19912;-75
2022/10/15 00:41:49;;;;;;;;;;;28.90;70.00;;;;;;5052930;28;19927;-75
2022/10/15 00:44:28;;;;;;;;;;;29.10;69.80;;;;;;5051383;28;19949;-75
2022/10/15 00:47:01;;;;;;;;;;;29.10;70.50;;;;;;5044578;28;19917;-76
2022/10/15 00:49:30;;;;;;;;;;;29.10;69.50;;;;;;5046497;28;19917;-76
2022/10/15 00:52:19;;;;;;;;;;;29.20;67.80;;;;;;5050801;28;19913;-75
2022/10/15 00:54:49;;;;;;;;;;;29.10;69.50;;;;;;5047176;28;19913;-74
2022/10/15 00:57:16;;;;;;;;;;;29.00;68.20;;;;;;5048503;28;20014;-75
2022/10/15 00:59:44;;;;;;;;;;;28.90;66.00;;;;;;5051604;28;20334;-76
2022/10/15 01:02:10;;;;;;;;;;;28.80;66.40;;;;;;5051560;28;20379;-76
2022/10/15 01:04:37;;;;;;;;;;;28.50;64.60;;;;;;5050652;28;19917;-77
2022/10/15 01:07:04;;;;;;;;;;;28.30;66.20;;;;;;5034925;28;20263;-76
2022/10/15 01:09:31;;;;;;;;;;;27.90;66.10;;;;;;5050406;28;21555;-76
2022/10/15 01:11:57;;;;;;;;;;;27.30;66.80;;;;;;5049789;28;19952;-74
2022/10/15 01:14:32;;;;;;;;;;;27.40;68.10;;;;;;5039734;28;19917;-77
2022/10/15 01:17:09;;;;;;;;;;;27.60;68.70;;;;;;5038387;28;19951;-75
2022/10/15 01:19:54;;;;;;;;;;;27.80;66.70;;;;;;5046346;28;20036;-75
2022/10/15 01:22:39;;;;;;;;;;;27.50;66.00;;;;;;5036536;28;19942;-77
2022/10/15 01:25:09;;;;;;;;;;;27.80;68.10;;;;;;5051371;28;19967;-74
2022/10/15 01:27:41;;;;;;;;;;;28.10;66.80;;;;;;5049624;28;19917;-73
2022/10/15 01:30:18;;;;;;;;;;;28.30;67.10;;;;;;5049849;28;19958;-74
2022/10/15 01:33:20;;;;;;;;;;;28.40;66.20;;;;;;5045986;28;20011;-75
2022/10/15 01:35:51;;;;;;;;;;;28.80;69.50;;;;;;4973067;28;20327;-76
2022/10/15 01:38:30;;;;;;;;;;;29.30;68.40;;;;;;5034665;28;19964;-77
2022/10/15 01:41:00;;;;;;;;;;;29.30;64.90;;;;;;5048715;28;19913;-76
2022/10/15 01:43:37;;;;;;;;;;;28.90;65.10;;;;;;5041387;28;19921;-73
2022/10/15 01:46:11;;;;;;;;;;;28.90;66.60;;;;;;5040359;28;19924;-74
2022/10/15 01:48:38;;;;;;;;;;;28.90;66.00;;;;;;5033475;28;20554;-74
2022/10/15 01:51:06;;;;;;;;;;;28.90;65.40;;;;;;5043690;28;19912;-73
2022/10/15 01:53:34;;;;;;;;;;;28.80;65.80;;;;;;5037634;28;20003;-74
2022/10/15 01:56:05;;;;;;;;;;;28.70;66.40;;;;;;5041694;28;19921;-75
2022/10/15 01:58:34;;;;;;;;;;;28.70;68.90;;;;;;5046027;28;20282;-76
2022/10/15 02:01:01;;;;;;;;;;;29.10;68.40;;;;;;5043267;28;20638;-74
2022/10/15 02:03:27;;;;;;;;;;;29.40;68.30;;;;;;5046312;28;19917;-74
2022/10/15 02:06:05;;;;;;;;;;;29.60;68.00;;;;;;5046865;28;19928;-74
2022/10/15 02:08:41;;;;;;;;;;;29.70;67.50;;;;;;5048021;28;19996;-74
2022/10/15 02:11:17;;;;;;;;;;;29.90;67.30;;;;;;5042767;28;20000;-74
2022/10/15 02:13:51;;;;;;;;;;;29.80;65.50;;;;;;5047826;28;19913;-74
2022/10/15 02:16:21;;;;;;;;;;;29.40;65.40;;;;;;5049750;28;19988;-74
2022/10/15 02:18:55;;;;;;;;;;;29.20;66.40;;;;;;5047106;28;19970;-75
2022/10/15 02:21:26;;;;;;;;;;;29.20;65.30;;;;;;5043958;28;19991;-73
2022/10/15 02:23:56;;;;;;;;;;;29.30;66.10;;;;;;5045355;28;19924;-75
2022/10/15 02:26:25;;;;;;;;;;;29.50;65.90;;;;;;5041307;28;19932;-73
2022/10/15 02:28:54;;;;;;;;;;;29.30;65.90;;;;;;5044013;28;19935;-74
2022/10/15 02:31:22;;;;;;;;;;;29.10;64.40;;;;;;5045444;28;20420;-74
2022/10/15 02:33:49;;;;;;;;;;;29.10;66.50;;;;;;5042817;28;19909;-74
2022/10/15 02:36:17;;;;;;;;;;;29.20;66.30;;;;;;5042975;28;19920;-75
2022/10/15 02:38:45;;;;;;;;;;;29.10;66.30;;;;;;5036387;28;19935;-75
2022/10/15 02:41:12;;;;;;;;;;;29.10;67.20;;;;;;5044281;28;19917;-75
2022/10/15 02:43:39;;;;;;;;;;;29.40;65.10;;;;;;5048512;28;20344;-74
2022/10/15 02:46:07;;;;;;;;;;;29.10;64.60;;;;;;5049083;28;19971;-75
2022/10/15 02:48:33;;;;;;;;;;;28.90;66.10;;;;;;5045517;28;19912;-74
2022/10/15 02:51:00;;;;;;;;;;;29.10;66.80;;;;;;5053187;28;19909;-74
2022/10/15 02:53:27;;;;;;;;;;;29.30;68.20;;;;;;5050040;28;19924;-75
2022/10/15 02:55:53;;;;;;;;;;;29.10;63.70;;;;;;5047938;28;19909;-75
2022/10/15 02:58:20;;;;;;;;;;;28.80;64.80;;;;;;5050183;28;20283;-75
2022/10/15 03:00:47;;;;;;;;;;;28.90;66.10;;;;;;5049819;28;20363;-74
2022/10/15 03:03:13;;;;;;;;;;;28.90;65.20;;;;;;5038631;28;20378;-73
2022/10/15 03:05:41;;;;;;;;;;;29.00;65.90;;;;;;5048174;28;19913;-74
2022/10/15 03:08:08;;;;;;;;;;;29.30;66.40;;;;;;5048117;28;19924;-74
2022/10/15 03:10:34;;;;;;;;;;;29.10;65.10;;;;;;5042006;28;19916;-74
2022/10/15 03:13:02;;;;;;;;;;;29.20;65.10;;;;;;5037582;28;19912;-74
2022/10/15 03:15:28;;;;;;;;;;;29.50;66.30;;;;;;5051543;28;19916;-74
2022/10/15 03:17:55;;;;;;;;;;;29.70;65.40;;;;;;5049081;28;19924;-75
2022/10/15 03:20:22;;;;;;;;;;;29.70;64.70;;;;;;5048631;28;19909;-75
2022/10/15 03:22:48;;;;;;;;;;;29.70;65.00;;;;;;5050171;28;19917;-74
2022/10/15 03:25:15;;;;;;;;;;;29.70;66.20;;;;;;5042516;28;19925;-74
2022/10/15 03:27:42;;;;;;;;;;;29.80;65.40;;;;;;5047213;28;20129;-74
2022/10/15 03:30:09;;;;;;;;;;;30.10;69.10;;;;;;5047515;28;20371;-74
2022/10/15 03:32:35;;;;;;;;;;;30.30;68.70;;;;;;5047190;28;20337;-74
2022/10/15 03:35:02;;;;;;;;;;;30.60;68.30;;;;;;5046030;28;19994;-75
2022/10/15 03:37:29;;;;;;;;;;;30.80;68.90;;;;;;5048486;28;19931;-73
2022/10/15 03:39:55;;;;;;;;;;;31.00;68.90;;;;;;5053945;28;19921;-74
2022/10/15 03:42:22;;;;;;;;;;;31.10;67.20;;;;;;5053567;28;19917;-74
2022/10/15 03:44:49;;;;;;;;;;;31.10;67.50;;;;;;5049864;28;19912;-74
2022/10/15 03:47:16;;;;;;;;;;;31.00;64.00;;;;;;5053200;28;19971;-74
2022/10/15 03:49:42;;;;;;;;;;;30.80;63.50;;;;;;5054655;28;20000;-75
2022/10/15 03:52:09;;;;;;;;;;;30.60;66.10;;;;;;5052516;28;19986;-74
2022/10/15 03:54:36;;;;;;;;;;;30.50;66.20;;;;;;5053037;28;19924;-76
2022/10/15 03:57:02;;;;;;;;;;;30.50;66.00;;;;;;5046374;28;20003;-74
2022/10/15 03:59:29;;;;;;;;;;;30.40;65.10;;;;;;5055293;28;19913;-73
2022/10/15 04:01:59;;;;;;;;;;;30.40;68.00;;;;;;5056600;28;19923;-75
2022/10/15 04:04:25;;;;;;;;;;;30.40;65.50;;;;;;5045809;28;20378;-74
2022/10/15 04:06:52;;;;;;;;;;;30.30;65.20;;;;;;5054897;28;19958;-73
2022/10/15 04:09:19;;;;;;;;;;;30.10;63.70;;;;;;5051776;28;19917;-73
2022/10/15 04:11:45;;;;;;;;;;;29.40;62.80;;;;;;5055947;28;19980;-75
2022/10/15 04:14:12;;;;;;;;;;;28.90;64.40;;;;;;5055694;28;19958;-74
2022/10/15 04:16:38;;;;;;;;;;;28.80;67.30;;;;;;5052085;28;20016;-73
2022/10/15 04:19:05;;;;;;;;;;;28.50;65.40;;;;;;5049292;28;19921;-73
2022/10/15 04:21:32;;;;;;;;;;;28.30;64.60;;;;;;5052210;28;19916;-74
2022/10/15 04:23:58;;;;;;;;;;;28.30;65.50;;;;;;5052425;28;19913;-75
2022/10/15 04:26:25;;;;;;;;;;;28.40;66.00;;;;;;5053756;28;19917;-74
2022/10/15 04:28:52;;;;;;;;;;;28.50;66.60;;;;;;5049404;28;20290;-73
2022/10/15 04:31:19;;;;;;;;;;;28.80;67.60;;;;;;5055729;28;19951;-74
2022/10/15 04:33:47;;;;;;;;;;;28.90;64.50;;;;;;5054103;28;20370;-74
2022/10/15 04:36:14;;;;;;;;;;;28.90;65.50;;;;;;5054874;28;19955;-75
2022/10/15 04:38:41;;;;;;;;;;;28.90;65.10;;;;;;5055537;28;19924;-74
2022/10/15 04:41:09;;;;;;;;;;;28.70;64.20;;;;;;5056554;28;20331;-75
2022/10/15 04:43:36;;;;;;;;;;;28.60;66.10;;;;;;5049874;28;19921;-73
2022/10/15 04:46:04;;;;;;;;;;;28.60;66.90;;;;;;5049165;28;20267;-74
2022/10/15 04:48:32;;;;;;;;;;;28.60;66.20;;;;;;5052043;28;19924;-74
2022/10/15 04:51:27;;;;;;;;;;;28.60;66.20;;;;;;5053247;28;19956;-76
2022/10/15 04:53:54;;;;;;;;;;;28.50;65.50;;;;;;5034037;28;19956;-75
2022/10/15 04:56:21;;;;;;;;;;;28.40;64.80;;;;;;5053328;28;19959;-73
2022/10/15 04:58:50;;;;;;;;;;;28.20;64.60;;;;;;5050516;28;19939;-73
2022/10/15 05:01:18;;;;;;;;;;;27.80;64.40;;;;;;5050685;28;19920;-73
2022/10/15 05:03:46;;;;;;;;;;;27.60;65.60;;;;;;5043136;28;19960;-74
2022/10/15 05:06:14;;;;;;;;;;;27.50;66.10;;;;;;5053723;28;19908;-75
2022/10/15 05:08:42;;;;;;;;;;;27.50;66.30;;;;;;5049331;28;20371;-73
2022/10/15 05:11:19;;;;;;;;;;;27.60;65.90;;;;;;5049181;28;19916;-76
2022/10/15 05:13:46;;;;;;;;;;;27.80;68.30;;;;;;5045218;28;20363;-73
2022/10/15 05:16:20;;;;;;;;;;;27.80;66.90;;;;;;5044107;28;19920;-76
2022/10/15 05:18:48;;;;;;;;;;;27.90;68.80;;;;;;5048310;28;19921;-76
2022/10/15 05:21:15;;;;;;;;;;;28.00;69.30;;;;;;5053200;28;19924;-76
2022/10/15 05:23:42;;;;;;;;;;;28.00;69.50;;;;;;5042440;28;19943;-76
2022/10/15 05:26:14;;;;;;;;;;;27.80;68.30;;;;;;5046107;28;19964;-76
2022/10/15 05:28:41;;;;;;;;;;;27.60;70.60;;;;;;5051724;28;20087;-80
2022/10/15 05:31:09;;;;;;;;;;;27.40;71.40;;;;;;5050730;28;19917;-76
2022/10/15 05:33:36;;;;;;;;;;;27.30;71.80;;;;;;5039009;28;19917;-77
2022/10/15 05:36:10;;;;;;;;;;;27.10;72.20;;;;;;5050939;28;19913;-78
2022/10/15 05:38:37;;;;;;;;;;;27.00;72.20;;;;;;5050879;28;19928;-76
2022/10/15 05:41:04;;;;;;;;;;;26.80;73.00;;;;;;5042274;28;20430;-76
2022/10/15 05:43:30;;;;;;;;;;;26.60;73.70;;;;;;5046740;28;19917;-75
2022/10/15 05:45:57;;;;;;;;;;;26.50;73.40;;;;;;5051401;28;20566;-76
2022/10/15 05:48:24;;;;;;;;;;;26.50;73.80;;;;;;5049761;28;19912;-76
2022/10/15 05:50:50;;;;;;;;;;;26.30;73.50;;;;;;5051783;28;19909;-79
2022/10/15 05:53:17;;;;;;;;;;;26.20;74.30;;;;;;5051503;28;19917;-76
2022/10/15 05:55:44;;;;;;;;;;;26.00;74.70;;;;;;5050832;28;20380;-77
2022/10/15 05:58:10;;;;;;;;;;;25.90;74.50;;;;;;5043445;28;19927;-78
2022/10/15 06:00:38;;;;;;;;;;;25.70;75.50;;;;;;5050960;28;20043;-76
2022/10/15 06:03:05;;;;;;;;;;;25.60;75.70;;;;;;5050522;28;20366;-76
2022/10/15 06:05:32;;;;;;;;;;;25.30;75.80;;;;;;5031584;28;20393;-75
2022/10/15 06:07:59;;;;;;;;;;;25.20;76.50;;;;;;5045334;28;20260;-76
2022/10/15 06:10:27;;;;;;;;;;;25.10;77.60;;;;;;5048697;28;19913;-76
2022/10/15 06:12:54;;;;;;;;;;;25.00;77.60;;;;;;5048515;28;19961;-75
2022/10/15 06:15:21;;;;;;;;;;;24.90;78.10;;;;;;5041582;28;19913;-76
2022/10/15 06:17:47;;;;;;;;;;;24.90;78.80;;;;;;5047666;28;19929;-78
2022/10/15 06:20:14;;;;;;;;;;;24.70;79.40;;;;;;5049546;28;19913;-75
2022/10/15 06:22:40;;;;;;;;;;;24.60;79.70;;;;;;5051983;28;20333;-75
2022/10/15 06:25:07;;;;;;;;;;;24.50;80.50;;;;;;5050368;28;20366;-75
2022/10/15 06:27:34;;;;;;;;;;;24.50;80.10;;;;;;5049663;28;19916;-75
2022/10/15 06:30:01;;;;;;;;;;;24.30;80.60;;;;;;5045474;28;19913;-74
2022/10/15 06:32:27;;;;;;;;;;;24.20;81.20;;;;;;5050578;28;20346;-75
2022/10/15 06:34:54;;;;;;;;;;;24.10;80.50;;;;;;5051493;28;19916;-74
2022/10/15 06:37:21;;;;;;;;;;;24.00;80.90;;;;;;5050172;28;20371;-76
2022/10/15 06:39:47;;;;;;;;;;;23.90;80.60;;;;;;5048278;28;19951;-75
2022/10/15 06:42:14;;;;;;;;;;;23.90;80.90;;;;;;5048549;28;19920;-76
2022/10/15 06:44:41;;;;;;;;;;;23.80;81.20;;;;;;5047005;28;19923;-75
2022/10/15 06:47:08;;;;;;;;;;;23.80;82.00;;;;;;5048164;28;19946;-75
2022/10/15 06:49:34;;;;;;;;;;;23.70;81.80;;;;;;5042745;28;19913;-75
2022/10/15 06:52:01;;;;;;;;;;;23.60;82.00;;;;;;5051468;28;19913;-76
2022/10/15 06:54:27;;;;;;;;;;;23.50;81.90;;;;;;5049739;28;19913;-75
2022/10/15 06:56:54;;;;;;;;;;;23.40;81.80;;;;;;5049460;28;19917;-76
2022/10/15 06:59:21;;;;;;;;;;;23.20;82.20;;;;;;5049955;28;19916;-77
2022/10/15 07:01:47;;;;;;;;;;;23.10;82.90;;;;;;5050776;28;19916;-77
2022/10/15 07:04:14;;;;;;;;;;;23.00;83.30;;;;;;5048177;28;19913;-75
2022/10/15 07:06:41;;;;;;;;;;;23.00;83.50;;;;;;5045802;28;20286;-75
2022/10/15 07:09:07;;;;;;;;;;;22.90;83.70;;;;;;5041400;28;20005;-75
2022/10/15 07:11:34;;;;;;;;;;;22.80;84.00;;;;;;5048868;28;19951;-73
2022/10/15 07:14:01;;;;;;;;;;;22.70;84.00;;;;;;5052358;28;19913;-74
2022/10/15 07:16:28;;;;;;;;;;;22.60;84.90;;;;;;5051115;28;19917;-74
2022/10/15 07:18:54;;;;;;;;;;;22.50;85.60;;;;;;5048897;28;19921;-74
2022/10/15 07:21:21;;;;;;;;;;;22.40;85.70;;;;;;5047813;28;19958;-74
2022/10/15 07:23:48;;;;;;;;;;;22.40;85.50;;;;;;5048990;28;20328;-78
2022/10/15 07:26:14;;;;;;;;;;;22.20;85.60;;;;;;5049867;28;20027;-74
2022/10/15 07:28:41;;;;;;;;;;;22.10;85.90;;;;;;5046399;28;19928;-74
2022/10/15 07:31:08;;;;;;;;;;;22.00;86.10;;;;;;5048289;28;19920;-74
2022/10/15 07:33:35;;;;;;;;;;;22.00;86.40;;;;;;5048675;28;19920;-75
2022/10/15 07:36:05;;;;;;;;;;;21.90;86.50;;;;;;5047866;28;19963;-74
2022/10/15 07:38:33;;;;;;;;;;;21.80;86.80;;;;;;5047625;28;20024;-74
2022/10/15 07:41:00;;;;;;;;;;;21.60;87.20;;;;;;5049953;28;19916;-75
2022/10/15 07:43:27;;;;;;;;;;;21.60;87.50;;;;;;5047805;28;19966;-76
2022/10/15 07:45:54;;;;;;;;;;;21.40;87.70;;;;;;5049153;28;20433;-74
2022/10/15 07:48:22;;;;;;;;;;;21.40;87.90;;;;;;5045318;28;20283;-75
2022/10/15 07:50:58;;;;;;;;;;;21.30;88.00;;;;;;5049729;28;19936;-74
2022/10/15 07:53:25;;;;;;;;;;;21.20;88.60;;;;;;5042534;28;19943;-74
2022/10/15 07:55:52;;;;;;;;;;;21.10;89.00;;;;;;5047342;28;19913;-77
2022/10/15 07:58:19;;;;;;;;;;;21.00;89.40;;;;;;5041567;28;20413;-76
2022/10/15 08:00:45;;;;;;;;;;;21.00;90.00;;;;;;5043583;28;19964;-76
2022/10/15 08:03:12;;;;;;;;;;;20.90;90.10;;;;;;5048389;28;19913;-75
2022/10/15 08:05:39;;;;;;;;;;;20.80;90.10;;;;;;5051243;28;19919;-77
2022/10/15 08:08:05;;;;;;;;;;;20.80;90.30;;;;;;5047774;28;19917;-74
2022/10/15 08:10:32;;;;;;;;;;;20.70;90.20;;;;;;5048313;28;19919;-79
2022/10/15 08:12:59;;;;;;;;;;;20.60;90.50;;;;;;5044391;28;19935;-75
2022/10/15 08:15:25;;;;;;;;;;;20.60;90.50;;;;;;5049068;28;20292;-74
2022/10/15 08:17:52;;;;;;;;;;;20.50;90.60;;;;;;5044351;28;19921;-74
2022/10/15 08:20:19;;;;;;;;;;;20.40;90.80;;;;;;5047226;28;19935;-75
2022/10/15 08:22:45;;;;;;;;;;;20.30;90.90;;;;;;5044959;28;20311;-74
2022/10/15 08:25:12;;;;;;;;;;;20.20;91.00;;;;;;5046948;28;20256;-75
2022/10/15 08:27:38;;;;;;;;;;;20.10;91.10;;;;;;5051382;28;19912;-74
2022/10/15 08:30:05;;;;;;;;;;;20.00;91.30;;;;;;5053119;28;20445;-75
2022/10/15 08:32:32;;;;;;;;;;;19.90;91.50;;;;;;5051366;28;19917;-74
2022/10/15 08:34:59;;;;;;;;;;;19.90;91.50;;;;;;5046486;28;19963;-74
2022/10/15 08:37:25;;;;;;;;;;;19.70;91.60;;;;;;5050149;28;20000;-74
2022/10/15 08:39:52;;;;;;;;;;;19.70;91.80;;;;;;5055481;28;20402;-74
2022/10/15 08:42:26;;;;;;;;;;;19.60;92.10;;;;;;5050884;28;19917;-74
2022/10/15 08:44:56;;;;;;;;;;;19.60;92.10;;;;;;5050615;28;19912;-75
2022/10/15 08:47:22;;;;;;;;;;;19.50;92.20;;;;;;5043903;28;19960;-75
2022/10/15 08:49:54;;;;;;;;;;;19.40;92.30;;;;;;5049132;28;20339;-73
2022/10/15 08:52:36;;;;;;;;;;;19.30;92.70;;;;;;5049188;28;20014;-76
2022/10/15 08:55:03;;;;;;;;;;;19.30;92.50;;;;;;5047483;28;20398;-74
2022/10/15 08:57:48;;;;;;;;;;;19.20;92.90;;;;;;5050624;28;19986;-75
2022/10/15 09:00:18;;;;;;;;;;;19.10;93.00;;;;;;5049874;28;19917;-75
2022/10/15 09:02:45;;;;;;;;;;;19.00;93.20;;;;;;5046356;28;19958;-74
2022/10/15 09:05:21;;;;;;;;;;;18.90;93.50;;;;;;5044651;28;19971;-74
2022/10/15 09:07:53;;;;;;;;;;;18.90;93.60;;;;;;5042920;28;20368;-76
2022/10/15 09:10:29;;;;;;;;;;;18.80;93.60;;;;;;5049372;28;19928;-75
2022/10/15 09:12:59;;;;;;;;;;;18.70;93.80;;;;;;5047854;28;19955;-74
2022/10/15 09:15:27;;;;;;;;;;;18.70;94.10;;;;;;5050587;28;20149;-73
2022/10/15 09:17:54;;;;;;;;;;;18.60;94.30;;;;;;5048468;28;19924;-75
2022/10/15 09:20:25;;;;;;;;;;;18.50;94.50;;;;;;5047682;28;19912;-74
2022/10/15 09:22:52;;;;;;;;;;;18.40;94.70;;;;;;5047658;28;20002;-74
2022/10/15 09:25:20;;;;;;;;;;;18.40;94.90;;;;;;5046310;28;19950;-74
2022/10/15 09:27:48;;;;;;;;;;;18.30;95.10;;;;;;5044704;28;19924;-74
2022/10/15 09:30:28;;;;;;;;;;;18.30;95.30;;;;;;5041403;28;19919;-75
2022/10/15 09:33:00;;;;;;;;;;;18.30;95.50;;;;;;5048462;28;19923;-76
2022/10/15 09:35:48;;;;;;;;;;;18.10;95.60;;;;;;5048298;28;20382;-75
2022/10/15 09:38:33;;;;;;;;;;;18.10;95.90;;;;;;5051068;28;19924;-75
2022/10/15 09:41:15;;;;;;;;;;;18.00;96.20;;;;;;5056556;28;20371;-75
2022/10/15 09:43:44;;;;;;;;;;;17.90;96.50;;;;;;5051586;28;19916;-75
2022/10/15 09:46:11;;;;;;;;;;;17.90;96.70;;;;;;5048088;28;19927;-75
2022/10/15 09:48:47;;;;;;;;;;;17.90;96.90;;;;;;5051461;28;19920;-77
2022/10/15 09:51:14;;;;;;;;;;;17.90;97.10;;;;;;5034095;28;19956;-78
2022/10/15 09:54:03;;;;;;;;;;;17.90;97.20;;;;;;5039421;28;19963;-76
2022/10/15 09:56:37;;;;;;;;;;;17.90;97.30;;;;;;5043457;28;19917;-76
2022/10/15 09:59:03;;;;;;;;;;;18.00;97.20;;;;;;5046375;28;19931;-75
2022/10/15 10:01:31;;;;;;;;;;;17.90;97.40;;;;;;5047817;28;19940;-76
2022/10/15 10:04:13;;;;;;;;;;;17.90;97.40;;;;;;5053359;28;19928;-76
2022/10/15 10:06:44;;;;;;;;;;;17.90;97.40;;;;;;5048855;28;19916;-76
2022/10/15 10:09:16;;;;;;;;;;;17.80;97.60;;;;;;5040881;28;19917;-75
2022/10/15 10:11:47;;;;;;;;;;;17.80;97.60;;;;;;5049654;28;19913;-77
2022/10/15 10:14:25;;;;;;;;;;;17.70;97.70;;;;;;5043009;28;19967;-77
2022/10/15 10:17:06;;;;;;;;;;;17.60;98.00;;;;;;5049823;28;20004;-76
2022/10/15 10:19:32;;;;;;;;;;;17.60;98.30;;;;;;5039238;28;19917;-78
2022/10/15 10:22:12;;;;;;;;;;;17.50;98.70;;;;;;5051833;28;20359;-77
2022/10/15 10:24:38;;;;;;;;;;;17.40;98.80;;;;;;5045739;28;19932;-78
2022/10/15 10:27:16;;;;;;;;;;;17.40;99.00;;;;;;5033614;28;19913;-77
2022/10/15 10:29:47;;;;;;;;;;;17.30;99.20;;;;;;5045379;28;19917;-78
2022/10/15 10:32:22;;;;;;;;;;;17.20;99.60;;;;;;5051383;28;20050;-77
2022/10/15 10:34:49;;;;;;;;;;;17.20;99.80;;;;;;5044794;28;19913;-77
2022/10/15 10:37:15;;;;;;;;;;;17.10;99.90;;;;;;5046879;28;19924;-75
2022/10/15 10:39:43;;;;;;;;;;;17.10;99.90;;;;;;5043262;28;20302;-77
2022/10/15 10:42:33;;;;;;;;;;;17.10;99.90;;;;;;5045093;28;19947;-75
2022/10/15 10:45:33;;;;;;;;;;;17.20;99.90;;;;;;5038678;28;19917;-76
2022/10/15 10:48:17;;;;;;;;;;;17.20;99.90;;;;;;4992825;28;19975;-77
2022/10/15 10:50:43;;;;;;;;;;;17.30;99.90;;;;;;5039857;28;19924;-75
2022/10/15 10:53:23;;;;;;;;;;;17.40;99.90;;;;;;5038162;28;20359;-76
2022/10/15 10:55:51;;;;;;;;;;;17.50;99.90;;;;;;5040702;28;19928;-75
2022/10/15 10:58:20;;;;;;;;;;;17.50;99.90;;;;;;5042582;28;20419;-75
2022/10/15 11:00:48;;;;;;;;;;;17.60;99.90;;;;;;5039993;28;19916;-77
2022/10/15 11:03:31;;;;;;;;;;;17.60;99.90;;;;;;5040219;28;20071;-76
2022/10/15 11:06:17;;;;;;;;;;;17.60;99.90;;;;;;5039432;28;19917;-75
2022/10/15 11:08:57;;;;;;;;;;;17.70;99.90;;;;;;5041333;28;20919;-74
2022/10/15 11:11:30;;;;;;;;;;;17.70;99.90;;;;;;5039336;28;20393;-74
2022/10/15 11:14:06;;;;;;;;;;;17.70;99.90;;;;;;5035231;28;20020;-74
2022/10/15 11:16:58;;;;;;;;;;;17.70;99.90;;;;;;5039480;28;19920;-75
2022/10/15 11:19:39;;;;;;;;;;;17.70;99.90;;;;;;5042798;28;19956;-75
2022/10/15 11:22:24;;;;;;;;;;;17.70;99.90;;;;;;5039682;28;19970;-74
2022/10/15 11:24:57;;;;;;;;;;;17.70;99.90;;;;;;5038609;28;20027;-75
2022/10/15 11:27:39;;;;;;;;;;;17.70;99.90;;;;;;5037043;28;19920;-75
2022/10/15 11:30:18;;;;;;;;;;;17.60;99.90;;;;;;5037098;28;19924;-74
2022/10/15 11:33:00;;;;;;;;;;;17.50;99.90;;;;;;5037255;28;20277;-75
2022/10/15 11:35:27;;;;;;;;;;;17.50;99.90;;;;;;5038599;28;19912;-74
2022/10/15 11:38:12;;;;;;;;;;;17.50;99.90;;;;;;5039162;28;19928;-74
2022/10/15 11:40:51;;;;;;;;;;;17.40;99.90;;;;;;5040970;28;19913;-75
2022/10/15 11:43:27;;;;;;;;;;;17.40;99.90;;;;;;5040145;28;19917;-72
2022/10/15 11:46:09;;;;;;;;;;;17.40;99.90;;;;;;5037511;28;20425;-74
2022/10/15 11:48:53;;;;;;;;;;;17.30;99.90;;;;;;5038776;28;19917;-73
2022/10/15 11:51:23;;;;;;;;;;;17.30;99.90;;;;;;5040848;28;19960;-75
2022/10/15 11:53:54;;;;;;;;;;;17.30;99.90;;;;;;5045951;28;19932;-74
2022/10/15 11:56:31;;;;;;;;;;;17.30;99.90;;;;;;5026203;28;19924;-75
2022/10/15 11:59:01;;;;;;;;;;;17.30;99.90;;;;;;5040902;28;19925;-76
2022/10/15 12:01:38;;;;;;;;;;;17.30;99.90;;;;;;5047044;28;19921;-75
2022/10/15 12:04:09;;;;;;;;;;;17.30;99.90;;;;;;5043051;28;20492;-73
2022/10/15 12:06:39;;;;;;;;;;;17.30;99.90;;;;;;5049276;28;19921;-74
2022/10/15 12:09:06;;;;;;;;;;;17.30;99.90;;;;;;5050066;28;19923;-74
2022/10/15 12:11:33;;;;;;;;;;;17.40;99.90;;;;;;5042531;28;20016;-73
2022/10/15 12:14:18;;;;;;;;;;;17.40;99.90;;;;;;5042849;28;19917;-75
2022/10/15 12:16:58;;;;;;;;;;;17.40;99.90;;;;;;5043629;28;19963;-74
2022/10/15 12:19:28;;;;;;;;;;;17.40;99.90;;;;;;5051573;28;19917;-75
2022/10/15 12:21:54;;;;;;;;;;;17.40;99.90;;;;;;5034487;28;19917;-73
2022/10/15 12:24:40;;;;;;;;;;;17.40;99.90;;;;;;5031795;28;19917;-74
2022/10/15 12:27:18;;;;;;;;;;;17.50;99.90;;;;;;5038745;28;20007;-73
2022/10/15 12:29:46;;;;;;;;;;;17.50;99.90;;;;;;5042104;28;20025;-74
2022/10/15 12:32:23;;;;;;;;;;;17.50;99.90;;;;;;5052750;28;19940;-75
2022/10/15 12:34:57;;;;;;;;;;;17.60;99.90;;;;;;5046483;28;19943;-74
2022/10/15 12:37:26;;;;;;;;;;;17.60;99.90;;;;;;5048417;28;19917;-74
2022/10/15 12:39:59;;;;;;;;;;;17.60;99.90;;;;;;5045460;28;20275;-75
2022/10/15 12:42:28;;;;;;;;;;;17.70;99.90;;;;;;5042616;28;20280;-74
2022/10/15 12:44:56;;;;;;;;;;;17.70;99.90;;;;;;5053534;28;20279;-74
2022/10/15 12:47:40;;;;;;;;;;;17.70;99.90;;;;;;5050487;28;19909;-74
2022/10/15 12:50:16;;;;;;;;;;;17.70;99.90;;;;;;5034184;28;19920;-74
2022/10/15 12:52:55;;;;;;;;;;;17.70;99.90;;;;;;5051444;28;20385;-74
2022/10/15 12:55:24;;;;;;;;;;;17.70;99.90;;;;;;5052068;28;19920;-74
2022/10/15 12:57:52;;;;;;;;;;;17.70;99.90;;;;;;5048633;28;19991;-74
2022/10/15 13:00:27;;;;;;;;;;;17.70;99.90;;;;;;5039347;28;20321;-74
2022/10/15 13:02:58;;;;;;;;;;;17.70;99.90;;;;;;5051916;28;19909;-74
2022/10/15 13:05:32;;;;;;;;;;;17.70;99.90;;;;;;5049257;28;19913;-75
2022/10/15 13:08:00;;;;;;;;;;;17.70;99.90;;;;;;5050264;28;19917;-74
2022/10/15 13:10:28;;;;;;;;;;;17.70;99.90;;;;;;5048475;28;19917;-74
2022/10/15 13:13:00;;;;;;;;;;;17.70;99.90;;;;;;5051787;28;19962;-74
2022/10/15 13:15:28;;;;;;;;;;;17.70;99.90;;;;;;5053180;28;20386;-74
2022/10/15 13:17:56;;;;;;;;;;;17.70;99.90;;;;;;5046678;28;19917;-75
2022/10/15 13:20:31;;;;;;;;;;;17.70;99.90;;;;;;5035069;28;19917;-75
2022/10/15 13:23:27;;;;;;;;;;;17.60;99.90;;;;;;5052058;28;19913;-76
2022/10/15 13:26:11;;;;;;;;;;;17.60;99.90;;;;;;5034646;28;19947;-75
2022/10/15 13:28:40;;;;;;;;;;;17.60;99.90;;;;;;5048700;28;20012;-75
2022/10/15 13:31:23;;;;;;;;;;;17.50;99.90;;;;;;5053453;28;20442;-74
2022/10/15 13:33:55;;;;;;;;;;;17.50;99.90;;;;;;5048435;28;19920;-75
2022/10/15 13:36:26;;;;;;;;;;;17.50;99.90;;;;;;5052542;28;19948;-76
2022/10/15 13:38:55;;;;;;;;;;;17.40;99.90;;;;;;5037688;28;19989;-74
2022/10/15 13:41:26;;;;;;;;;;;17.40;99.90;;;;;;5051648;28;19962;-74
2022/10/15 13:43:57;;;;;;;;;;;17.40;99.90;;;;;;5048656;28;19913;-75
2022/10/15 13:46:25;;;;;;;;;;;17.40;99.90;;;;;;5054017;28;20427;-75
2022/10/15 13:49:03;;;;;;;;;;;17.30;99.90;;;;;;5045749;28;19913;-76
2022/10/15 13:51:34;;;;;;;;;;;17.30;99.90;;;;;;5046542;28;19959;-74
2022/10/15 13:54:02;;;;;;;;;;;17.30;99.90;;;;;;5037478;28;19917;-75
2022/10/15 13:56:30;;;;;;;;;;;17.30;99.90;;;;;;5051246;28;19917;-75
2022/10/15 13:58:57;;;;;;;;;;;17.30;99.90;;;;;;5047838;28;20020;-74
2022/10/15 14:01:25;;;;;;;;;;;17.30;99.90;;;;;;5052044;28;19913;-75
2022/10/15 14:03:55;;;;;;;;;;;17.30;99.90;;;;;;5051113;28;19912;-75
2022/10/15 14:06:36;;;;;;;;;;;17.30;99.90;;;;;;5047842;28;19939;-74
2022/10/15 14:09:22;;;;;;;;;;;17.30;99.90;;;;;;5050871;28;19919;-75
2022/10/15 14:11:49;;;;;;;;;;;17.30;99.90;;;;;;5050100;28;19952;-74
2022/10/15 14:14:32;;;;;;;;;;;17.30;99.90;;;;;;5040716;28;20337;-74
2022/10/15 14:17:00;;;;;;;;;;;17.30;99.90;;;;;;5044945;28;19935;-75
2022/10/15 14:19:31;;;;;;;;;;;17.20;99.90;;;;;;5065464;28;19921;-75
2022/10/15 14:21:58;;;;;;;;;;;17.20;99.90;;;;;;5048588;28;19917;-74
2022/10/15 14:24:28;;;;;;;;;;;17.30;99.90;;;;;;5047052;28;20496;-74
2022/10/15 14:27:00;;;;;;;;;;;17.20;99.90;;;;;;5046977;28;20651;-74
2022/10/15 14:29:28;;;;;;;;;;;17.20;99.90;;;;;;5042322;28;19920;-73
2022/10/15 14:31:55;;;;;;;;;;;17.20;99.90;;;;;;5048602;28;19913;-75
2022/10/15 14:34:34;;;;;;;;;;;17.20;99.90;;;;;;5037383;28;19920;-74